sensor_id;sensor_type;location;lat;lon;timestamp;pressure;altitude;pressure_sealevel;temperature;humidity
58975;BME280;44751;52.236;5.178;2023-12-22T00:02:12;100094.16;;;11.66;100.00
58975;BME280;44751;52.236;5.178;2023-12-22T00:04:38;100088.31;;;11.62;100.00
58975;BME280;44751;52.236;5.178;2023-12-22T00:07:04;100084.63;;;11.70;100.00
58975;BME280;44751;52.236;5.178;2023-12-22T00:09:31;100083.81;;;11.83;100.00
58975;BME280;44751;52.236;5.178;2023-12-22T00:11:57;100080.03;;;11.63;100.00
58975;BME280;44751;52.236;5.178;2023-12-22T00:14:23;100084.41;;;11.92;100.00
58975;BME280;44751;52.236;5.178;2023-12-22T00:16:49;100102.28;;;11.59;100.00
58975;BME280;44751;52.236;5.178;2023-12-22T00:19:16;100097.13;;;12.11;100.00
58975;BME280;44751;52.236;5.178;2023-12-22T00:21:42;100108.09;;;11.69;100.00
58975;BME280;44751;52.236;5.178;2023-12-22T00:24:08;100100.69;;;12.19;100.00
58975;BME280;44751;52.236;5.178;2023-12-22T00:26:35;100101.88;;;11.82;100.00
58975;BME280;44751;52.236;5.178;2023-12-22T00:29:01;100094.16;;;11.59;100.00
58975;BME280;44751;52.236;5.178;2023-12-22T00:31:28;100075.91;;;11.74;100.00
58975;BME280;44751;52.236;5.178;2023-12-22T00:33:54;100093.09;;;11.46;100.00
58975;BME280;44751;52.236;5.178;2023-12-22T00:36:20;100082.16;;;12.16;100.00
58975;BME280;44751;52.236;5.178;2023-12-22T00:38:49;100089.00;;;12.18;100.00
58975;BME280;44751;52.236;5.178;2023-12-22T00:41:15;100079.03;;;12.39;100.00
58975;BME280;44751;52.236;5.178;2023-12-22T00:43:42;100077.34;;;11.77;100.00
58975;BME280;44751;52.236;5.178;2023-12-22T00:46:08;100075.28;;;11.93;100.00
58975;BME280;44751;52.236;5.178;2023-12-22T00:48:34;100089.22;;;12.37;100.00
58975;BME280;44751;52.236;5.178;2023-12-22T00:51:00;100091.50;;;12.47;100.00
58975;BME280;44751;52.236;5.178;2023-12-22T00:53:28;100112.72;;;12.36;100.00
58975;BME280;44751;52.236;5.178;2023-12-22T00:55:54;100116.06;;;12.38;100.00
58975;BME280;44751;52.236;5.178;2023-12-22T00:58:20;100102.09;;;12.55;100.00
58975;BME280;44751;52.236;5.178;2023-12-22T01:00:47;100105.03;;;12.40;100.00
58975;BME280;44751;52.236;5.178;2023-12-22T01:03:13;100118.34;;;12.21;100.00
58975;BME280;44751;52.236;5.178;2023-12-22T01:05:39;100120.00;;;12.16;100.00
58975;BME280;44751;52.236;5.178;2023-12-22T01:08:06;100121.06;;;12.28;100.00
58975;BME280;44751;52.236;5.178;2023-12-22T01:10:32;100122.50;;;12.17;100.00
58975;BME280;44751;52.236;5.178;2023-12-22T01:12:58;100116.91;;;12.25;100.00
58975;BME280;44751;52.236;5.178;2023-12-22T01:15:25;100109.13;;;12.76;100.00
58975;BME280;44751;52.236;5.178;2023-12-22T01:17:51;100121.06;;;12.28;100.00
58975;BME280;44751;52.236;5.178;2023-12-22T01:20:17;100137.88;;;12.71;100.00
58975;BME280;44751;52.236;5.178;2023-12-22T01:22:44;100127.88;;;12.64;100.00
58975;BME280;44751;52.236;5.178;2023-12-22T01:25:10;100130.34;;;12.73;100.00
58975;BME280;44751;52.236;5.178;2023-12-22T01:27:36;100115.84;;;12.47;100.00
58975;BME280;44751;52.236;5.178;2023-12-22T01:30:03;100118.16;;;12.43;100.00
58975;BME280;44751;52.236;5.178;2023-12-22T01:32:29;100115.94;;;12.93;100.00
58975;BME280;44751;52.236;5.178;2023-12-22T01:34:59;100121.84;;;12.69;100.00
58975;BME280;44751;52.236;5.178;2023-12-22T01:37:28;100119.34;;;12.68;100.00
58975;BME280;44751;52.236;5.178;2023-12-22T01:39:55;100120.00;;;12.49;100.00
58975;BME280;44751;52.236;5.178;2023-12-22T01:42:21;100121.44;;;12.65;100.00
58975;BME280;44751;52.236;5.178;2023-12-22T01:44:47;100118.06;;;12.84;100.00
58975;BME280;44751;52.236;5.178;2023-12-22T01:47:14;100121.00;;;12.62;100.00
58975;BME280;44751;52.236;5.178;2023-12-22T01:49:40;100123.09;;;12.67;100.00
58975;BME280;44751;52.236;5.178;2023-12-22T01:52:07;100115.59;;;12.62;100.00
58975;BME280;44751;52.236;5.178;2023-12-22T01:54:33;100122.06;;;12.61;100.00
58975;BME280;44751;52.236;5.178;2023-12-22T01:57:00;100124.38;;;12.57;100.00
58975;BME280;44751;52.236;5.178;2023-12-22T01:59:27;100114.63;;;12.29;100.00
58975;BME280;44751;52.236;5.178;2023-12-22T02:01:55;100116.28;;;12.23;100.00
58975;BME280;44751;52.236;5.178;2023-12-22T02:04:22;100108.38;;;12.49;100.00
58975;BME280;44751;52.236;5.178;2023-12-22T02:06:49;100118.56;;;12.40;100.00
58975;BME280;44751;52.236;5.178;2023-12-22T02:09:15;100114.38;;;12.58;100.00
58975;BME280;44751;52.236;5.178;2023-12-22T02:11:42;100104.81;;;12.48;100.00
58975;BME280;44751;52.236;5.178;2023-12-22T02:14:08;100105.06;;;12.33;100.00
58975;BME280;44751;52.236;5.178;2023-12-22T02:22:02;100109.38;;;12.48;100.00
58975;BME280;44751;52.236;5.178;2023-12-22T02:24:29;100089.22;;;12.10;100.00
58975;BME280;44751;52.236;5.178;2023-12-22T02:26:58;100082.78;;;12.18;100.00
58975;BME280;44751;52.236;5.178;2023-12-22T02:29:30;100093.75;;;12.57;100.00
58975;BME280;44751;52.236;5.178;2023-12-22T02:31:58;100098.31;;;12.63;100.00
58975;BME280;44751;52.236;5.178;2023-12-22T02:34:26;100088.53;;;12.62;100.00
58975;BME280;44751;52.236;5.178;2023-12-22T02:36:53;100090.00;;;12.71;100.00
58975;BME280;44751;52.236;5.178;2023-12-22T02:39:20;100088.06;;;12.78;100.00
58975;BME280;44751;52.236;5.178;2023-12-22T02:41:46;100089.41;;;12.35;100.00
58975;BME280;44751;52.236;5.178;2023-12-22T02:44:13;100095.25;;;12.39;100.00
58975;BME280;44751;52.236;5.178;2023-12-22T02:46:39;100087.78;;;12.27;100.00
58975;BME280;44751;52.236;5.178;2023-12-22T02:49:06;100086.09;;;12.40;100.00
58975;BME280;44751;52.236;5.178;2023-12-22T02:51:33;100086.44;;;12.77;100.00
58975;BME280;44751;52.236;5.178;2023-12-22T02:53:59;100089.78;;;12.66;100.00
58975;BME280;44751;52.236;5.178;2023-12-22T02:56:26;100089.81;;;12.52;100.00
58975;BME280;44751;52.236;5.178;2023-12-22T02:58:52;100078.13;;;12.59;100.00
58975;BME280;44751;52.236;5.178;2023-12-22T03:01:18;100085.06;;;13.07;100.00
58975;BME280;44751;52.236;5.178;2023-12-22T03:03:46;100083.34;;;13.20;100.00
58975;BME280;44751;52.236;5.178;2023-12-22T03:06:13;100084.47;;;12.98;100.00
58975;BME280;44751;52.236;5.178;2023-12-22T03:08:39;100103.63;;;13.03;100.00
58975;BME280;44751;52.236;5.178;2023-12-22T03:11:05;100095.81;;;12.68;100.00
58975;BME280;44751;52.236;5.178;2023-12-22T03:13:31;100120.25;;;12.27;100.00
58975;BME280;44751;52.236;5.178;2023-12-22T03:15:58;100105.75;;;12.95;100.00
58975;BME280;44751;52.236;5.178;2023-12-22T03:18:24;100105.09;;;12.93;100.00
58975;BME280;44751;52.236;5.178;2023-12-22T03:20:50;100120.56;;;12.85;100.00
58975;BME280;44751;52.236;5.178;2023-12-22T03:23:17;100108.03;;;12.98;100.00
58975;BME280;44751;52.236;5.178;2023-12-22T03:25:43;100125.06;;;13.12;100.00
58975;BME280;44751;52.236;5.178;2023-12-22T03:28:09;100112.00;;;13.41;100.00
58975;BME280;44751;52.236;5.178;2023-12-22T03:30:36;100124.75;;;13.34;100.00
58975;BME280;44751;52.236;5.178;2023-12-22T03:33:03;100158.94;;;13.28;100.00
58975;BME280;44751;52.236;5.178;2023-12-22T03:35:29;100172.00;;;12.72;100.00
58975;BME280;44751;52.236;5.178;2023-12-22T03:37:55;100193.19;;;12.00;100.00
58975;BME280;44751;52.236;5.178;2023-12-22T03:40:22;100166.91;;;11.60;100.00
58975;BME280;44751;52.236;5.178;2023-12-22T03:42:48;100163.03;;;12.04;100.00
58975;BME280;44751;52.236;5.178;2023-12-22T03:45:14;100164.03;;;11.89;100.00
58975;BME280;44751;52.236;5.178;2023-12-22T03:47:40;100162.66;;;12.40;100.00
58975;BME280;44751;52.236;5.178;2023-12-22T03:50:07;100158.50;;;12.24;100.00
58975;BME280;44751;52.236;5.178;2023-12-22T03:52:33;100149.75;;;12.56;100.00
58975;BME280;44751;52.236;5.178;2023-12-22T03:55:00;100150.19;;;12.60;100.00
58975;BME280;44751;52.236;5.178;2023-12-22T03:57:26;100144.13;;;12.64;100.00
58975;BME280;44751;52.236;5.178;2023-12-22T03:59:53;100137.81;;;12.98;100.00
58975;BME280;44751;52.236;5.178;2023-12-22T04:02:19;100136.13;;;13.03;100.00
58975;BME280;44751;52.236;5.178;2023-12-22T04:04:45;100139.28;;;12.87;100.00
58975;BME280;44751;52.236;5.178;2023-12-22T04:07:12;100132.69;;;13.28;100.00
58975;BME280;44751;52.236;5.178;2023-12-22T04:09:38;100142.63;;;12.82;100.00
58975;BME280;44751;52.236;5.178;2023-12-22T04:12:05;100139.16;;;13.21;100.00
58975;BME280;44751;52.236;5.178;2023-12-22T04:14:31;100144.09;;;12.85;100.00
58975;BME280;44751;52.236;5.178;2023-12-22T04:16:57;100139.09;;;12.82;100.00
58975;BME280;44751;52.236;5.178;2023-12-22T04:19:24;100148.88;;;12.76;100.00
58975;BME280;44751;52.236;5.178;2023-12-22T04:21:50;100135.66;;;13.13;100.00
58975;BME280;44751;52.236;5.178;2023-12-22T04:24:16;100146.00;;;12.64;100.00
58975;BME280;44751;52.236;5.178;2023-12-22T04:26:43;100127.84;;;13.37;100.00
58975;BME280;44751;52.236;5.178;2023-12-22T04:29:09;100139.16;;;13.21;100.00
58975;BME280;44751;52.236;5.178;2023-12-22T04:31:36;100143.81;;;13.07;100.00
58975;BME280;44751;52.236;5.178;2023-12-22T04:34:02;100145.81;;;13.32;100.00
58975;BME280;44751;52.236;5.178;2023-12-22T04:36:28;100135.97;;;13.83;100.00
58975;BME280;44751;52.236;5.178;2023-12-22T04:38:55;100133.47;;;13.81;100.00
58975;BME280;44751;52.236;5.178;2023-12-22T04:41:21;100143.28;;;13.82;100.00
58975;BME280;44751;52.236;5.178;2023-12-22T04:43:47;100141.72;;;14.00;100.00
58975;BME280;44751;52.236;5.178;2023-12-22T04:46:14;100130.09;;;13.47;100.00
58975;BME280;44751;52.236;5.178;2023-12-22T04:48:40;100137.19;;;13.87;100.00
58975;BME280;44751;52.236;5.178;2023-12-22T04:51:06;100141.66;;;13.75;100.00
58975;BME280;44751;52.236;5.178;2023-12-22T04:53:32;100141.50;;;13.63;100.00
58975;BME280;44751;52.236;5.178;2023-12-22T04:55:59;100139.47;;;13.58;100.00
58975;BME280;44751;52.236;5.178;2023-12-22T04:58:25;100137.50;;;13.72;100.00
58975;BME280;44751;52.236;5.178;2023-12-22T05:00:51;100134.28;;;13.89;100.00
58975;BME280;44751;52.236;5.178;2023-12-22T05:03:18;100143.00;;;13.91;100.00
58975;BME280;44751;52.236;5.178;2023-12-22T05:05:44;100140.09;;;14.18;100.00
58975;BME280;44751;52.236;5.178;2023-12-22T05:08:10;100136.50;;;14.24;100.00
58975;BME280;44751;52.236;5.178;2023-12-22T05:10:37;100138.81;;;14.20;100.00
58975;BME280;44751;52.236;5.178;2023-12-22T05:13:03;100129.63;;;14.22;100.00
58975;BME280;44751;52.236;5.178;2023-12-22T05:15:29;100144.81;;;14.29;100.00
58975;BME280;44751;52.236;5.178;2023-12-22T05:17:56;100144.47;;;14.19;100.00
58975;BME280;44751;52.236;5.178;2023-12-22T05:20:22;100122.69;;;13.75;100.00
58975;BME280;44751;52.236;5.178;2023-12-22T05:22:48;100127.09;;;14.01;100.00
58975;BME280;44751;52.236;5.178;2023-12-22T05:25:15;100136.16;;;14.14;100.00
58975;BME280;44751;52.236;5.178;2023-12-22T05:27:41;100139.63;;;14.28;100.00
58975;BME280;44751;52.236;5.178;2023-12-22T05:30:08;100145.53;;;14.18;100.00
58975;BME280;44751;52.236;5.178;2023-12-22T05:32:34;100128.03;;;14.14;100.00
58975;BME280;44751;52.236;5.178;2023-12-22T05:35:01;100141.88;;;14.31;100.00
58975;BME280;44751;52.236;5.178;2023-12-22T05:37:27;100121.22;;;14.30;100.00
58975;BME280;44751;52.236;5.178;2023-12-22T05:39:53;100131.25;;;13.72;100.00
58975;BME280;44751;52.236;5.178;2023-12-22T05:42:20;100130.50;;;13.90;100.00
58975;BME280;44751;52.236;5.178;2023-12-22T05:44:47;100132.59;;;13.88;100.00
58975;BME280;44751;52.236;5.178;2023-12-22T05:47:15;100137.09;;;14.01;100.00
58975;BME280;44751;52.236;5.178;2023-12-22T05:49:41;100120.56;;;14.35;100.00
58975;BME280;44751;52.236;5.178;2023-12-22T05:52:08;100136.13;;;14.46;100.00
58975;BME280;44751;52.236;5.178;2023-12-22T05:54:35;100137.38;;;14.69;100.00
58975;BME280;44751;52.236;5.178;2023-12-22T05:57:01;100124.75;;;14.56;100.00
58975;BME280;44751;52.236;5.178;2023-12-22T05:59:30;100139.19;;;14.24;100.00
58975;BME280;44751;52.236;5.178;2023-12-22T06:01:57;100139.47;;;14.41;100.00
58975;BME280;44751;52.236;5.178;2023-12-22T06:04:23;100135.00;;;14.03;100.00
58975;BME280;44751;52.236;5.178;2023-12-22T06:06:50;100141.72;;;14.70;100.00
58975;BME280;44751;52.236;5.178;2023-12-22T06:09:16;100132.09;;;14.74;100.00
58975;BME280;44751;52.236;5.178;2023-12-22T06:11:45;100130.34;;;14.10;100.00
58975;BME280;44751;52.236;5.178;2023-12-22T06:14:11;100148.38;;;14.74;100.00
58975;BME280;44751;52.236;5.178;2023-12-22T06:16:38;100155.69;;;14.48;100.00
58975;BME280;44751;52.236;5.178;2023-12-22T06:19:04;100148.75;;;14.33;100.00
58975;BME280;44751;52.236;5.178;2023-12-22T06:21:31;100154.63;;;14.30;100.00
58975;BME280;44751;52.236;5.178;2023-12-22T06:23:57;100156.09;;;14.26;100.00
58975;BME280;44751;52.236;5.178;2023-12-22T06:26:24;100145.63;;;14.30;100.00
58975;BME280;44751;52.236;5.178;2023-12-22T06:28:50;100141.84;;;14.56;100.00
58975;BME280;44751;52.236;5.178;2023-12-22T06:31:17;100135.97;;;14.85;100.00
58975;BME280;44751;52.236;5.178;2023-12-22T06:33:44;100149.47;;;14.48;100.00
58975;BME280;44751;52.236;5.178;2023-12-22T06:36:20;100143.69;;;14.63;100.00
58975;BME280;44751;52.236;5.178;2023-12-22T06:38:47;100144.13;;;14.59;100.00
58975;BME280;44751;52.236;5.178;2023-12-22T06:41:27;100140.09;;;14.69;100.00
58975;BME280;44751;52.236;5.178;2023-12-22T06:43:53;100145.19;;;14.07;100.00
58975;BME280;44751;52.236;5.178;2023-12-22T06:46:21;100134.75;;;14.55;100.00
58975;BME280;44751;52.236;5.178;2023-12-22T06:48:48;100139.88;;;14.45;100.00
58975;BME280;44751;52.236;5.178;2023-12-22T06:53:45;100131.31;;;14.67;100.00
58975;BME280;44751;52.236;5.178;2023-12-22T06:56:21;100143.28;;;14.84;100.00
58975;BME280;44751;52.236;5.178;2023-12-22T06:58:49;100131.75;;;14.45;100.00
58975;BME280;44751;52.236;5.178;2023-12-22T07:03:46;100137.97;;;14.45;100.00
58975;BME280;44751;52.236;5.178;2023-12-22T07:06:14;100140.88;;;14.25;100.00
58975;BME280;44751;52.236;5.178;2023-12-22T07:08:40;100130.75;;;14.58;100.00
58975;BME280;44751;52.236;5.178;2023-12-22T07:11:07;100132.06;;;15.00;100.00
58975;BME280;44751;52.236;5.178;2023-12-22T07:13:34;100126.84;;;14.79;100.00
58975;BME280;44751;52.236;5.178;2023-12-22T07:16:00;100130.16;;;15.19;100.00
58975;BME280;44751;52.236;5.178;2023-12-22T07:18:27;100136.03;;;15.34;100.00
58975;BME280;44751;52.236;5.178;2023-12-22T07:20:55;100137.78;;;14.91;100.00
58975;BME280;44751;52.236;5.178;2023-12-22T07:23:22;100138.47;;;15.05;100.00
58975;BME280;44751;52.236;5.178;2023-12-22T07:25:48;100142.06;;;14.99;100.00
58975;BME280;44751;52.236;5.178;2023-12-22T07:28:15;100142.19;;;14.67;100.00
58975;BME280;44751;52.236;5.178;2023-12-22T07:30:41;100129.03;;;14.45;100.00
58975;BME280;44751;52.236;5.178;2023-12-22T07:33:08;100126.44;;;14.76;100.00
58975;BME280;44751;52.236;5.178;2023-12-22T07:35:34;100143.91;;;14.61;100.00
58975;BME280;44751;52.236;5.178;2023-12-22T07:38:00;100138.81;;;14.20;100.00
58975;BME280;44751;52.236;5.178;2023-12-22T07:40:27;100124.75;;;14.30;100.00
58975;BME280;44751;52.236;5.178;2023-12-22T07:42:55;100125.69;;;13.92;100.00
58975;BME280;44751;52.236;5.178;2023-12-22T07:45:21;100118.84;;;14.40;100.00
58975;BME280;44751;52.236;5.178;2023-12-22T07:47:48;100123.66;;;14.13;100.00
58975;BME280;44751;52.236;5.178;2023-12-22T07:50:14;100129.19;;;14.25;100.00
58975;BME280;44751;52.236;5.178;2023-12-22T07:52:40;100122.13;;;14.42;100.00
58975;BME280;44751;52.236;5.178;2023-12-22T07:55:08;100135.06;;;14.22;100.00
58975;BME280;44751;52.236;5.178;2023-12-22T07:57:35;100133.44;;;14.65;100.00
58975;BME280;44751;52.236;5.178;2023-12-22T08:00:02;100135.78;;;14.36;100.00
58975;BME280;44751;52.236;5.178;2023-12-22T08:02:28;100134.47;;;14.19;100.00
58975;BME280;44751;52.236;5.178;2023-12-22T08:04:55;100146.91;;;14.27;100.00
58975;BME280;44751;52.236;5.178;2023-12-22T08:07:21;100147.03;;;14.39;100.00
58975;BME280;44751;52.236;5.178;2023-12-22T08:09:47;100148.56;;;14.28;100.00
58975;BME280;44751;52.236;5.178;2023-12-22T08:12:14;100138.44;;;14.17;100.00
58975;BME280;44751;52.236;5.178;2023-12-22T08:14:40;100126.53;;;14.18;100.00
58975;BME280;44751;52.236;5.178;2023-12-22T08:17:07;100134.59;;;13.99;100.00
58975;BME280;44751;52.236;5.178;2023-12-22T08:19:33;100129.34;;;14.55;100.00
58975;BME280;44751;52.236;5.178;2023-12-22T08:21:59;100143.25;;;14.15;100.00
58975;BME280;44751;52.236;5.178;2023-12-22T08:24:26;100118.47;;;14.37;100.00
58975;BME280;44751;52.236;5.178;2023-12-22T08:26:52;100117.56;;;14.17;100.00
58975;BME280;44751;52.236;5.178;2023-12-22T08:29:19;100105.69;;;14.63;100.00
58975;BME280;44751;52.236;5.178;2023-12-22T08:31:45;100109.03;;;14.39;100.00
58975;BME280;44751;52.236;5.178;2023-12-22T08:34:15;100091.13;;;14.94;100.00
58975;BME280;44751;52.236;5.178;2023-12-22T08:36:41;100092.44;;;14.29;100.00
58975;BME280;44751;52.236;5.178;2023-12-22T08:39:08;100109.50;;;13.78;100.00
58975;BME280;44751;52.236;5.178;2023-12-22T08:41:35;100100.38;;;14.49;100.00
58975;BME280;44751;52.236;5.178;2023-12-22T08:44:02;100094.59;;;14.64;100.00
58975;BME280;44751;52.236;5.178;2023-12-22T08:46:32;100106.75;;;14.99;100.00
58975;BME280;44751;52.236;5.178;2023-12-22T08:48:59;100105.50;;;14.83;100.00
58975;BME280;44751;52.236;5.178;2023-12-22T08:51:25;100100.78;;;14.71;100.00
58975;BME280;44751;52.236;5.178;2023-12-22T08:53:53;100106.22;;;14.90;100.00
58975;BME280;44751;52.236;5.178;2023-12-22T08:56:19;100112.00;;;14.56;100.00
58975;BME280;44751;52.236;5.178;2023-12-22T08:58:46;100096.88;;;14.86;100.00
58975;BME280;44751;52.236;5.178;2023-12-22T09:01:16;100094.91;;;14.93;100.00
58975;BME280;44751;52.236;5.178;2023-12-22T09:03:42;100095.72;;;15.13;100.00
58975;BME280;44751;52.236;5.178;2023-12-22T09:06:13;100097.09;;;14.84;100.00
58975;BME280;44751;52.236;5.178;2023-12-22T09:08:40;100108.44;;;14.81;100.00
58975;BME280;44751;52.236;5.178;2023-12-22T09:11:06;100094.38;;;15.03;100.00
58975;BME280;44751;52.236;5.178;2023-12-22T09:13:33;100103.69;;;14.51;100.00
58975;BME280;44751;52.236;5.178;2023-12-22T09:16:00;100107.09;;;14.65;100.00
58975;BME280;44751;52.236;5.178;2023-12-22T09:18:27;100112.59;;;13.89;100.00
58975;BME280;44751;52.236;5.178;2023-12-22T09:20:53;100120.97;;;14.06;100.00
58975;BME280;44751;52.236;5.178;2023-12-22T09:23:20;100116.53;;;14.63;100.00
58975;BME280;44751;52.236;5.178;2023-12-22T09:25:47;100124.22;;;14.66;100.00
58975;BME280;44751;52.236;5.178;2023-12-22T09:28:13;100109.13;;;14.51;100.00
58975;BME280;44751;52.236;5.178;2023-12-22T09:30:40;100107.53;;;14.43;100.00
58975;BME280;44751;52.236;5.178;2023-12-22T09:33:06;100093.66;;;14.77;100.00
58975;BME280;44751;52.236;5.178;2023-12-22T09:35:33;100094.78;;;14.88;100.00
58975;BME280;44751;52.236;5.178;2023-12-22T09:37:59;100102.19;;;15.00;100.00
58975;BME280;44751;52.236;5.178;2023-12-22T09:40:26;100096.44;;;14.89;100.00
58975;BME280;44751;52.236;5.178;2023-12-22T09:42:55;100095.28;;;14.97;100.00
58975;BME280;44751;52.236;5.178;2023-12-22T09:45:22;100100.31;;;14.75;100.00
58975;BME280;44751;52.236;5.178;2023-12-22T09:47:48;100103.16;;;15.05;100.00
58975;BME280;44751;52.236;5.178;2023-12-22T09:50:16;100093.28;;;14.92;100.00
58975;BME280;44751;52.236;5.178;2023-12-22T09:52:43;100092.78;;;15.45;100.00
58975;BME280;44751;52.236;5.178;2023-12-22T09:55:11;100097.41;;;15.44;100.00
58975;BME280;44751;52.236;5.178;2023-12-22T09:57:38;100107.00;;;15.47;100.00
58975;BME280;44751;52.236;5.178;2023-12-22T10:00:06;100096.63;;;15.56;100.00
58975;BME280;44751;52.236;5.178;2023-12-22T10:02:34;100103.97;;;15.55;100.00
58975;BME280;44751;52.236;5.178;2023-12-22T10:05:02;100100.44;;;15.67;100.00
58975;BME280;44751;52.236;5.178;2023-12-22T10:07:28;100121.88;;;15.75;100.00
58975;BME280;44751;52.236;5.178;2023-12-22T10:09:57;100109.13;;;15.87;100.00
58975;BME280;44751;52.236;5.178;2023-12-22T10:12:24;100117.41;;;15.50;100.00
58975;BME280;44751;52.236;5.178;2023-12-22T10:14:51;100119.59;;;15.60;100.00
58975;BME280;44751;52.236;5.178;2023-12-22T10:17:19;100123.31;;;15.90;100.00
58975;BME280;44751;52.236;5.178;2023-12-22T10:19:45;100121.91;;;15.87;100.00
58975;BME280;44751;52.236;5.178;2023-12-22T10:22:11;100129.50;;;15.97;100.00
58975;BME280;44751;52.236;5.178;2023-12-22T10:24:38;100121.19;;;15.49;100.00
58975;BME280;44751;52.236;5.178;2023-12-22T10:27:05;100123.88;;;15.80;100.00
58975;BME280;44751;52.236;5.178;2023-12-22T10:29:31;100130.03;;;15.75;100.00
58975;BME280;44751;52.236;5.178;2023-12-22T10:32:00;100127.91;;;16.20;100.00
58975;BME280;44751;52.236;5.178;2023-12-22T10:34:26;100128.38;;;15.74;100.00
58975;BME280;44751;52.236;5.178;2023-12-22T10:36:52;100144.25;;;15.89;100.00
58975;BME280;44751;52.236;5.178;2023-12-22T10:39:19;100148.94;;;16.00;100.00
58975;BME280;44751;52.236;5.178;2023-12-22T10:41:46;100149.81;;;16.37;100.00
58975;BME280;44751;52.236;5.178;2023-12-22T10:44:12;100133.66;;;15.99;100.00
58975;BME280;44751;52.236;5.178;2023-12-22T10:46:38;100137.16;;;16.43;100.00
58975;BME280;44751;52.236;5.178;2023-12-22T10:49:05;100132.03;;;16.10;100.00
58975;BME280;44751;52.236;5.178;2023-12-22T10:51:33;100129.22;;;16.29;100.00
58975;BME280;44751;52.236;5.178;2023-12-22T10:53:59;100136.41;;;16.11;100.00
58975;BME280;44751;52.236;5.178;2023-12-22T10:56:26;100119.06;;;15.82;100.00
58975;BME280;44751;52.236;5.178;2023-12-22T10:58:53;100126.16;;;16.25;100.00
58975;BME280;44751;52.236;5.178;2023-12-22T11:01:20;100133.34;;;16.32;100.00
58975;BME280;44751;52.236;5.178;2023-12-22T11:03:48;100119.88;;;16.49;100.00
58975;BME280;44751;52.236;5.178;2023-12-22T11:06:17;100117.88;;;16.20;100.00
58975;BME280;44751;52.236;5.178;2023-12-22T11:08:43;100098.78;;;16.08;100.00
58975;BME280;44751;52.236;5.178;2023-12-22T11:11:16;100112.06;;;16.41;100.00
58975;BME280;44751;52.236;5.178;2023-12-22T11:13:46;100112.38;;;16.68;100.00
58975;BME280;44751;52.236;5.178;2023-12-22T11:16:13;100108.28;;;16.30;100.00
58975;BME280;44751;52.236;5.178;2023-12-22T11:18:41;100100.75;;;16.97;100.00
58975;BME280;44751;52.236;5.178;2023-12-22T11:21:07;100099.50;;;16.63;100.00
58975;BME280;44751;52.236;5.178;2023-12-22T11:23:35;100090.13;;;16.83;100.00
58975;BME280;44751;52.236;5.178;2023-12-22T11:26:02;100087.22;;;16.37;100.00
58975;BME280;44751;52.236;5.178;2023-12-22T11:28:30;100108.38;;;16.71;100.00
58975;BME280;44751;52.236;5.178;2023-12-22T11:30:57;100100.69;;;16.44;100.00
58975;BME280;44751;52.236;5.178;2023-12-22T11:33:25;100104.13;;;16.39;100.00
58975;BME280;44751;52.236;5.178;2023-12-22T11:35:52;100103.06;;;16.40;100.00
58975;BME280;44751;52.236;5.178;2023-12-22T11:38:21;100100.22;;;16.35;100.00
58975;BME280;44751;52.236;5.178;2023-12-22T11:40:48;100094.75;;;16.83;100.00
58975;BME280;44751;52.236;5.178;2023-12-22T11:43:15;100098.81;;;16.56;100.00
58975;BME280;44751;52.236;5.178;2023-12-22T11:45:43;100103.28;;;16.62;100.00
58975;BME280;44751;52.236;5.178;2023-12-22T11:48:09;100092.97;;;16.76;100.00
58975;BME280;44751;52.236;5.178;2023-12-22T11:50:36;100072.00;;;16.77;100.00
58975;BME280;44751;52.236;5.178;2023-12-22T11:56:05;100074.16;;;16.75;100.00
58975;BME280;44751;52.236;5.178;2023-12-22T11:58:39;100071.88;;;16.84;100.00
58975;BME280;44751;52.236;5.178;2023-12-22T12:01:07;100058.31;;;16.48;100.00
58975;BME280;44751;52.236;5.178;2023-12-22T12:03:35;100062.88;;;16.83;100.00
58975;BME280;44751;52.236;5.178;2023-12-22T12:08:48;100059.03;;;16.55;100.00
58975;BME280;44751;52.236;5.178;2023-12-22T12:11:16;100058.47;;;16.82;100.00
58975;BME280;44751;52.236;5.178;2023-12-22T12:13:42;100082.22;;;16.22;100.00
58975;BME280;44751;52.236;5.178;2023-12-22T12:16:09;100057.31;;;16.78;100.00
58975;BME280;44751;52.236;5.178;2023-12-22T12:18:36;100044.38;;;16.97;100.00
58975;BME280;44751;52.236;5.178;2023-12-22T12:21:03;100045.78;;;16.88;100.00
58975;BME280;44751;52.236;5.178;2023-12-22T12:23:32;100046.03;;;16.86;100.00
58975;BME280;44751;52.236;5.178;2023-12-22T12:25:58;100046.66;;;16.76;100.00
58975;BME280;44751;52.236;5.178;2023-12-22T12:28:25;100055.53;;;16.84;100.00
58975;BME280;44751;52.236;5.178;2023-12-22T12:30:59;100049.88;;;16.61;100.00
58975;BME280;44751;52.236;5.178;2023-12-22T12:33:26;100047.25;;;16.78;100.00
58975;BME280;44751;52.236;5.178;2023-12-22T12:35:54;100052.00;;;16.71;100.00
58975;BME280;44751;52.236;5.178;2023-12-22T12:38:23;100050.88;;;16.55;100.00
58975;BME280;44751;52.236;5.178;2023-12-22T12:40:50;100033.78;;;16.72;100.00
58975;BME280;44751;52.236;5.178;2023-12-22T12:43:17;100039.41;;;16.41;100.00
58975;BME280;44751;52.236;5.178;2023-12-22T12:45:43;100045.00;;;15.80;100.00
58975;BME280;44751;52.236;5.178;2023-12-22T12:48:10;100057.16;;;16.20;100.00
58975;BME280;44751;52.236;5.178;2023-12-22T12:50:37;100048.25;;;16.60;100.00
58975;BME280;44751;52.236;5.178;2023-12-22T12:53:04;100058.22;;;16.43;100.00
58975;BME280;44751;52.236;5.178;2023-12-22T12:55:32;100057.13;;;16.32;100.00